sensor_id;sensor_type;location;lat;lon;timestamp;P1;durP1;ratioP1;P2;durP2;ratioP2
38909;SDS011;24676;51.360;12.354;2023-06-22T00:00:06;11.43;;;6.00;;
38909;SDS011;24676;51.360;12.354;2023-06-22T00:02:55;9.43;;;5.93;;
38909;SDS011;24676;51.360;12.354;2023-06-22T00:05:39;9.27;;;5.55;;
38909;SDS011;24676;51.360;12.354;2023-06-22T00:08:23;13.52;;;6.53;;
38909;SDS011;24676;51.360;12.354;2023-06-22T00:11:07;7.70;;;5.38;;
38909;SDS011;24676;51.360;12.354;2023-06-22T00:13:51;8.55;;;6.03;;
38909;SDS011;24676;51.360;12.354;2023-06-22T00:16:36;7.10;;;4.63;;
38909;SDS011;24676;51.360;12.354;2023-06-22T00:19:20;6.40;;;4.30;;
38909;SDS011;24676;51.360;12.354;2023-06-22T00:22:05;9.43;;;4.50;;
38909;SDS011;24676;51.360;12.354;2023-06-22T00:24:49;9.32;;;5.55;;
38909;SDS011;24676;51.360;12.354;2023-06-22T00:27:33;9.45;;;5.20;;
38909;SDS011;24676;51.360;12.354;2023-06-22T00:30:18;9.20;;;5.40;;
38909;SDS011;24676;51.360;12.354;2023-06-22T00:33:03;9.75;;;7.63;;
38909;SDS011;24676;51.360;12.354;2023-06-22T00:35:47;9.50;;;5.78;;
38909;SDS011;24676;51.360;12.354;2023-06-22T00:38:32;12.70;;;6.68;;
38909;SDS011;24676;51.360;12.354;2023-06-22T00:41:16;9.20;;;5.45;;
38909;SDS011;24676;51.360;12.354;2023-06-22T00:44:01;7.97;;;5.93;;
38909;SDS011;24676;51.360;12.354;2023-06-22T00:46:45;10.80;;;5.63;;
38909;SDS011;24676;51.360;12.354;2023-06-22T00:49:29;8.45;;;4.80;;
38909;SDS011;24676;51.360;12.354;2023-06-22T00:52:14;8.50;;;5.35;;
38909;SDS011;24676;51.360;12.354;2023-06-22T00:55:04;9.25;;;6.47;;
38909;SDS011;24676;51.360;12.354;2023-06-22T00:57:50;15.85;;;7.38;;
38909;SDS011;24676;51.360;12.354;2023-06-22T01:00:40;9.07;;;7.57;;
38909;SDS011;24676;51.360;12.354;2023-06-22T01:03:25;8.75;;;5.75;;
38909;SDS011;24676;51.360;12.354;2023-06-22T01:06:10;9.13;;;5.65;;
38909;SDS011;24676;51.360;12.354;2023-06-22T01:09:06;8.70;;;5.60;;
38909;SDS011;24676;51.360;12.354;2023-06-22T01:12:02;10.50;;;4.95;;
38909;SDS011;24676;51.360;12.354;2023-06-22T01:14:50;9.60;;;5.47;;
38909;SDS011;24676;51.360;12.354;2023-06-22T01:17:42;8.00;;;5.30;;
38909;SDS011;24676;51.360;12.354;2023-06-22T01:20:28;5.55;;;4.47;;
38909;SDS011;24676;51.360;12.354;2023-06-22T01:26:18;7.38;;;5.50;;
38909;SDS011;24676;51.360;12.354;2023-06-22T01:29:06;9.77;;;5.45;;
38909;SDS011;24676;51.360;12.354;2023-06-22T01:31:51;6.80;;;5.25;;
38909;SDS011;24676;51.360;12.354;2023-06-22T01:34:38;6.45;;;5.03;;
38909;SDS011;24676;51.360;12.354;2023-06-22T01:37:24;6.50;;;4.38;;
38909;SDS011;24676;51.360;12.354;2023-06-22T01:40:10;8.65;;;5.78;;
38909;SDS011;24676;51.360;12.354;2023-06-22T01:42:55;6.13;;;4.43;;
38909;SDS011;24676;51.360;12.354;2023-06-22T01:45:40;7.13;;;4.55;;
38909;SDS011;24676;51.360;12.354;2023-06-22T01:48:24;7.18;;;4.80;;
38909;SDS011;24676;51.360;12.354;2023-06-22T01:51:09;7.90;;;4.40;;
38909;SDS011;24676;51.360;12.354;2023-06-22T01:53:54;8.32;;;5.22;;
38909;SDS011;24676;51.360;12.354;2023-06-22T01:56:38;9.10;;;4.43;;
38909;SDS011;24676;51.360;12.354;2023-06-22T01:59:32;12.02;;;5.38;;
38909;SDS011;24676;51.360;12.354;2023-06-22T02:02:20;8.65;;;4.93;;
38909;SDS011;24676;51.360;12.354;2023-06-22T02:05:10;5.82;;;4.40;;
38909;SDS011;24676;51.360;12.354;2023-06-22T02:08:45;8.20;;;5.40;;
38909;SDS011;24676;51.360;12.354;2023-06-22T02:11:08;6.97;;;4.53;;
38909;SDS011;24676;51.360;12.354;2023-06-22T02:13:54;6.03;;;4.00;;
38909;SDS011;24676;51.360;12.354;2023-06-22T02:16:40;5.13;;;3.97;;
38909;SDS011;24676;51.360;12.354;2023-06-22T02:19:26;9.10;;;5.45;;
38909;SDS011;24676;51.360;12.354;2023-06-22T02:22:10;9.88;;;5.75;;
38909;SDS011;24676;51.360;12.354;2023-06-22T02:24:56;7.32;;;4.88;;
38909;SDS011;24676;51.360;12.354;2023-06-22T02:27:40;8.85;;;5.40;;
38909;SDS011;24676;51.360;12.354;2023-06-22T02:30:24;6.72;;;5.35;;
38909;SDS011;24676;51.360;12.354;2023-06-22T02:33:09;6.50;;;4.80;;
38909;SDS011;24676;51.360;12.354;2023-06-22T02:35:53;7.22;;;4.32;;
38909;SDS011;24676;51.360;12.354;2023-06-22T02:38:37;6.85;;;5.18;;
38909;SDS011;24676;51.360;12.354;2023-06-22T02:41:21;6.20;;;4.25;;
38909;SDS011;24676;51.360;12.354;2023-06-22T02:44:05;6.95;;;4.40;;
38909;SDS011;24676;51.360;12.354;2023-06-22T02:46:49;29.58;;;7.35;;
38909;SDS011;24676;51.360;12.354;2023-06-22T02:49:33;8.48;;;5.03;;
38909;SDS011;24676;51.360;12.354;2023-06-22T02:52:18;7.03;;;4.70;;
38909;SDS011;24676;51.360;12.354;2023-06-22T02:55:02;6.00;;;4.57;;
38909;SDS011;24676;51.360;12.354;2023-06-22T02:57:47;4.63;;;4.03;;
38909;SDS011;24676;51.360;12.354;2023-06-22T03:00:36;7.63;;;5.45;;
38909;SDS011;24676;51.360;12.354;2023-06-22T03:03:20;8.18;;;5.90;;
38909;SDS011;24676;51.360;12.354;2023-06-22T03:06:04;9.65;;;6.10;;
38909;SDS011;24676;51.360;12.354;2023-06-22T03:08:49;8.00;;;4.18;;
38909;SDS011;24676;51.360;12.354;2023-06-22T03:11:34;6.07;;;5.22;;
38909;SDS011;24676;51.360;12.354;2023-06-22T03:14:18;8.95;;;5.43;;
38909;SDS011;24676;51.360;12.354;2023-06-22T03:17:03;6.05;;;4.78;;
38909;SDS011;24676;51.360;12.354;2023-06-22T03:19:48;6.25;;;4.53;;
38909;SDS011;24676;51.360;12.354;2023-06-22T03:22:32;8.45;;;5.43;;
38909;SDS011;24676;51.360;12.354;2023-06-22T03:25:16;12.77;;;6.85;;
38909;SDS011;24676;51.360;12.354;2023-06-22T03:28:00;11.15;;;6.22;;
38909;SDS011;24676;51.360;12.354;2023-06-22T03:30:45;5.95;;;5.18;;
38909;SDS011;24676;51.360;12.354;2023-06-22T03:33:29;9.05;;;6.30;;
38909;SDS011;24676;51.360;12.354;2023-06-22T03:36:13;9.85;;;6.03;;
38909;SDS011;24676;51.360;12.354;2023-06-22T03:39:00;9.63;;;5.55;;
38909;SDS011;24676;51.360;12.354;2023-06-22T03:41:44;6.43;;;4.60;;
38909;SDS011;24676;51.360;12.354;2023-06-22T03:44:28;8.85;;;5.40;;
38909;SDS011;24676;51.360;12.354;2023-06-22T03:47:12;7.85;;;5.82;;
38909;SDS011;24676;51.360;12.354;2023-06-22T03:49:56;6.35;;;5.15;;
38909;SDS011;24676;51.360;12.354;2023-06-22T03:52:40;9.40;;;6.45;;
38909;SDS011;24676;51.360;12.354;2023-06-22T03:55:24;8.60;;;6.07;;
38909;SDS011;24676;51.360;12.354;2023-06-22T03:58:08;8.45;;;5.88;;
38909;SDS011;24676;51.360;12.354;2023-06-22T04:00:53;7.25;;;5.93;;
38909;SDS011;24676;51.360;12.354;2023-06-22T04:03:37;7.97;;;6.47;;
38909;SDS011;24676;51.360;12.354;2023-06-22T04:06:22;10.10;;;6.80;;
38909;SDS011;24676;51.360;12.354;2023-06-22T04:09:06;8.73;;;5.57;;
38909;SDS011;24676;51.360;12.354;2023-06-22T04:11:54;8.57;;;5.95;;
38909;SDS011;24676;51.360;12.354;2023-06-22T04:14:38;8.05;;;5.28;;
38909;SDS011;24676;51.360;12.354;2023-06-22T04:17:22;10.95;;;5.95;;
38909;SDS011;24676;51.360;12.354;2023-06-22T04:20:08;7.60;;;5.00;;
38909;SDS011;24676;51.360;12.354;2023-06-22T04:22:53;10.63;;;6.63;;
38909;SDS011;24676;51.360;12.354;2023-06-22T04:25:37;9.85;;;5.53;;
38909;SDS011;24676;51.360;12.354;2023-06-22T04:28:22;17.25;;;8.45;;
38909;SDS011;24676;51.360;12.354;2023-06-22T04:31:06;8.63;;;6.85;;
38909;SDS011;24676;51.360;12.354;2023-06-22T04:33:50;13.68;;;6.30;;
38909;SDS011;24676;51.360;12.354;2023-06-22T04:36:35;11.90;;;6.47;;
38909;SDS011;24676;51.360;12.354;2023-06-22T04:39:24;7.43;;;6.18;;
38909;SDS011;24676;51.360;12.354;2023-06-22T04:42:11;10.15;;;6.70;;
38909;SDS011;24676;51.360;12.354;2023-06-22T04:44:56;8.15;;;5.80;;
38909;SDS011;24676;51.360;12.354;2023-06-22T04:47:40;9.32;;;6.80;;
38909;SDS011;24676;51.360;12.354;2023-06-22T04:50:24;7.68;;;6.15;;
38909;SDS011;24676;51.360;12.354;2023-06-22T04:53:08;9.85;;;6.22;;
38909;SDS011;24676;51.360;12.354;2023-06-22T04:55:56;9.02;;;6.05;;
38909;SDS011;24676;51.360;12.354;2023-06-22T04:58:40;8.63;;;5.75;;
38909;SDS011;24676;51.360;12.354;2023-06-22T05:01:24;10.98;;;7.63;;
38909;SDS011;24676;51.360;12.354;2023-06-22T05:04:09;7.07;;;6.07;;
38909;SDS011;24676;51.360;12.354;2023-06-22T05:06:53;10.20;;;6.55;;
38909;SDS011;24676;51.360;12.354;2023-06-22T05:09:38;6.93;;;5.35;;
38909;SDS011;24676;51.360;12.354;2023-06-22T05:12:22;11.13;;;7.35;;
38909;SDS011;24676;51.360;12.354;2023-06-22T05:15:06;9.93;;;6.65;;
38909;SDS011;24676;51.360;12.354;2023-06-22T05:17:52;8.18;;;4.93;;
38909;SDS011;24676;51.360;12.354;2023-06-22T05:20:36;8.82;;;5.10;;
38909;SDS011;24676;51.360;12.354;2023-06-22T05:23:20;6.85;;;5.63;;
38909;SDS011;24676;51.360;12.354;2023-06-22T05:26:04;14.20;;;6.20;;
38909;SDS011;24676;51.360;12.354;2023-06-22T05:28:48;7.57;;;5.63;;
38909;SDS011;24676;51.360;12.354;2023-06-22T05:31:33;6.15;;;5.43;;
38909;SDS011;24676;51.360;12.354;2023-06-22T05:34:17;8.18;;;5.82;;
38909;SDS011;24676;51.360;12.354;2023-06-22T05:37:01;8.15;;;5.75;;
38909;SDS011;24676;51.360;12.354;2023-06-22T05:39:46;9.52;;;6.93;;
38909;SDS011;24676;51.360;12.354;2023-06-22T05:42:30;12.02;;;6.05;;
38909;SDS011;24676;51.360;12.354;2023-06-22T05:45:14;12.90;;;5.93;;
38909;SDS011;24676;51.360;12.354;2023-06-22T05:47:59;8.25;;;6.20;;
38909;SDS011;24676;51.360;12.354;2023-06-22T05:50:43;9.32;;;5.70;;
38909;SDS011;24676;51.360;12.354;2023-06-22T05:53:27;10.57;;;4.85;;
38909;SDS011;24676;51.360;12.354;2023-06-22T05:56:11;7.28;;;5.20;;
38909;SDS011;24676;51.360;12.354;2023-06-22T05:58:55;9.35;;;6.25;;
38909;SDS011;24676;51.360;12.354;2023-06-22T06:01:40;8.48;;;5.57;;
38909;SDS011;24676;51.360;12.354;2023-06-22T06:04:24;8.88;;;5.43;;
38909;SDS011;24676;51.360;12.354;2023-06-22T06:07:08;7.90;;;5.22;;
38909;SDS011;24676;51.360;12.354;2023-06-22T06:09:52;6.63;;;5.28;;
38909;SDS011;24676;51.360;12.354;2023-06-22T06:12:36;7.13;;;5.07;;
38909;SDS011;24676;51.360;12.354;2023-06-22T06:15:20;7.22;;;5.05;;
38909;SDS011;24676;51.360;12.354;2023-06-22T06:18:05;7.93;;;4.80;;
38909;SDS011;24676;51.360;12.354;2023-06-22T06:20:50;6.47;;;5.30;;
38909;SDS011;24676;51.360;12.354;2023-06-22T06:23:34;5.32;;;4.22;;
38909;SDS011;24676;51.360;12.354;2023-06-22T06:26:19;10.80;;;5.20;;
38909;SDS011;24676;51.360;12.354;2023-06-22T06:29:10;9.30;;;5.13;;
38909;SDS011;24676;51.360;12.354;2023-06-22T06:31:55;9.13;;;4.75;;
38909;SDS011;24676;51.360;12.354;2023-06-22T06:34:40;6.80;;;4.88;;
38909;SDS011;24676;51.360;12.354;2023-06-22T06:37:24;6.07;;;3.92;;
38909;SDS011;24676;51.360;12.354;2023-06-22T06:40:09;7.18;;;4.07;;
38909;SDS011;24676;51.360;12.354;2023-06-22T06:42:54;7.95;;;5.28;;
38909;SDS011;24676;51.360;12.354;2023-06-22T06:45:39;5.40;;;4.18;;
38909;SDS011;24676;51.360;12.354;2023-06-22T06:48:23;8.75;;;5.00;;
38909;SDS011;24676;51.360;12.354;2023-06-22T06:51:08;6.93;;;4.90;;
38909;SDS011;24676;51.360;12.354;2023-06-22T06:53:52;9.38;;;5.32;;
38909;SDS011;24676;51.360;12.354;2023-06-22T06:56:36;6.13;;;4.88;;
38909;SDS011;24676;51.360;12.354;2023-06-22T06:59:21;7.07;;;4.32;;
38909;SDS011;24676;51.360;12.354;2023-06-22T07:02:05;6.28;;;4.93;;
38909;SDS011;24676;51.360;12.354;2023-06-22T07:04:49;8.73;;;4.35;;
38909;SDS011;24676;51.360;12.354;2023-06-22T07:07:34;5.63;;;4.32;;
38909;SDS011;24676;51.360;12.354;2023-06-22T07:10:18;9.15;;;5.10;;
38909;SDS011;24676;51.360;12.354;2023-06-22T07:13:02;6.18;;;4.65;;
38909;SDS011;24676;51.360;12.354;2023-06-22T07:15:47;8.00;;;4.45;;
38909;SDS011;24676;51.360;12.354;2023-06-22T07:18:31;5.75;;;5.13;;
38909;SDS011;24676;51.360;12.354;2023-06-22T07:21:15;6.75;;;4.78;;
38909;SDS011;24676;51.360;12.354;2023-06-22T07:23:59;6.75;;;5.35;;
38909;SDS011;24676;51.360;12.354;2023-06-22T07:26:43;7.18;;;4.63;;
38909;SDS011;24676;51.360;12.354;2023-06-22T07:29:29;5.45;;;4.18;;
38909;SDS011;24676;51.360;12.354;2023-06-22T07:32:15;5.50;;;4.10;;
38909;SDS011;24676;51.360;12.354;2023-06-22T07:34:59;4.35;;;3.85;;
38909;SDS011;24676;51.360;12.354;2023-06-22T07:37:45;5.38;;;4.10;;
38909;SDS011;24676;51.360;12.354;2023-06-22T07:40:29;9.50;;;4.43;;
38909;SDS011;24676;51.360;12.354;2023-06-22T07:43:13;5.95;;;4.22;;
38909;SDS011;24676;51.360;12.354;2023-06-22T07:46:00;6.18;;;4.60;;
38909;SDS011;24676;51.360;12.354;2023-06-22T07:48:45;6.00;;;4.10;;
38909;SDS011;24676;51.360;12.354;2023-06-22T07:51:29;5.18;;;4.65;;
38909;SDS011;24676;51.360;12.354;2023-06-22T07:54:14;5.22;;;4.53;;
38909;SDS011;24676;51.360;12.354;2023-06-22T07:56:59;4.07;;;3.67;;
38909;SDS011;24676;51.360;12.354;2023-06-22T07:59:44;6.25;;;3.85;;
38909;SDS011;24676;51.360;12.354;2023-06-22T08:02:28;4.72;;;3.88;;
38909;SDS011;24676;51.360;12.354;2023-06-22T08:05:13;4.10;;;3.50;;
38909;SDS011;24676;51.360;12.354;2023-06-22T08:07:58;5.78;;;4.35;;
38909;SDS011;24676;51.360;12.354;2023-06-22T08:10:43;4.53;;;3.58;;
38909;SDS011;24676;51.360;12.354;2023-06-22T08:13:27;5.50;;;3.88;;
38909;SDS011;24676;51.360;12.354;2023-06-22T08:16:11;4.93;;;4.22;;
38909;SDS011;24676;51.360;12.354;2023-06-22T08:18:55;6.50;;;4.65;;
38909;SDS011;24676;51.360;12.354;2023-06-22T08:21:40;5.00;;;4.10;;
38909;SDS011;24676;51.360;12.354;2023-06-22T08:24:24;3.75;;;3.40;;
38909;SDS011;24676;51.360;12.354;2023-06-22T08:27:09;5.18;;;4.68;;
38909;SDS011;24676;51.360;12.354;2023-06-22T08:29:55;5.40;;;3.42;;
38909;SDS011;24676;51.360;12.354;2023-06-22T08:32:42;4.72;;;4.32;;
38909;SDS011;24676;51.360;12.354;2023-06-22T08:35:26;6.22;;;4.28;;
38909;SDS011;24676;51.360;12.354;2023-06-22T08:38:11;6.03;;;4.15;;
38909;SDS011;24676;51.360;12.354;2023-06-22T08:40:59;6.45;;;4.15;;
38909;SDS011;24676;51.360;12.354;2023-06-22T08:43:44;4.70;;;4.13;;
38909;SDS011;24676;51.360;12.354;2023-06-22T08:46:28;4.90;;;4.40;;
38909;SDS011;24676;51.360;12.354;2023-06-22T08:49:16;5.70;;;4.47;;
38909;SDS011;24676;51.360;12.354;2023-06-22T08:52:00;4.07;;;3.65;;
38909;SDS011;24676;51.360;12.354;2023-06-22T08:54:44;4.85;;;4.38;;
38909;SDS011;24676;51.360;12.354;2023-06-22T08:57:28;8.43;;;4.55;;
38909;SDS011;24676;51.360;12.354;2023-06-22T09:00:14;6.82;;;3.80;;
38909;SDS011;24676;51.360;12.354;2023-06-22T09:03:00;5.30;;;4.25;;
38909;SDS011;24676;51.360;12.354;2023-06-22T09:05:45;3.60;;;3.28;;
38909;SDS011;24676;51.360;12.354;2023-06-22T09:08:29;5.25;;;4.38;;
38909;SDS011;24676;51.360;12.354;2023-06-22T09:11:14;6.50;;;3.88;;
38909;SDS011;24676;51.360;12.354;2023-06-22T09:13:58;5.55;;;4.15;;
38909;SDS011;24676;51.360;12.354;2023-06-22T09:16:43;4.85;;;3.53;;
38909;SDS011;24676;51.360;12.354;2023-06-22T09:19:28;4.82;;;3.20;;
38909;SDS011;24676;51.360;12.354;2023-06-22T09:22:12;5.05;;;3.83;;
38909;SDS011;24676;51.360;12.354;2023-06-22T09:24:56;3.83;;;3.35;;
38909;SDS011;24676;51.360;12.354;2023-06-22T09:27:41;6.88;;;4.30;;
38909;SDS011;24676;51.360;12.354;2023-06-22T09:30:25;6.07;;;4.05;;
38909;SDS011;24676;51.360;12.354;2023-06-22T09:33:09;4.88;;;3.55;;
38909;SDS011;24676;51.360;12.354;2023-06-22T09:35:53;5.90;;;3.33;;
38909;SDS011;24676;51.360;12.354;2023-06-22T09:38:37;3.15;;;2.85;;
38909;SDS011;24676;51.360;12.354;2023-06-22T09:41:22;3.40;;;3.00;;
38909;SDS011;24676;51.360;12.354;2023-06-22T09:44:07;3.47;;;2.97;;
38909;SDS011;24676;51.360;12.354;2023-06-22T09:46:51;3.28;;;2.88;;
38909;SDS011;24676;51.360;12.354;2023-06-22T09:49:35;4.32;;;3.78;;
38909;SDS011;24676;51.360;12.354;2023-06-22T09:52:19;5.60;;;4.00;;
38909;SDS011;24676;51.360;12.354;2023-06-22T09:55:03;3.83;;;2.72;;
38909;SDS011;24676;51.360;12.354;2023-06-22T09:57:48;5.00;;;3.67;;
38909;SDS011;24676;51.360;12.354;2023-06-22T10:00:32;6.38;;;3.85;;
38909;SDS011;24676;51.360;12.354;2023-06-22T10:03:16;5.18;;;4.00;;
38909;SDS011;24676;51.360;12.354;2023-06-22T10:06:00;5.22;;;3.65;;
38909;SDS011;24676;51.360;12.354;2023-06-22T10:08:45;7.40;;;4.60;;
38909;SDS011;24676;51.360;12.354;2023-06-22T10:11:29;3.55;;;3.25;;
38909;SDS011;24676;51.360;12.354;2023-06-22T10:14:14;4.97;;;3.72;;
38909;SDS011;24676;51.360;12.354;2023-06-22T10:16:58;3.55;;;3.10;;
38909;SDS011;24676;51.360;12.354;2023-06-22T10:19:43;7.20;;;3.30;;
38909;SDS011;24676;51.360;12.354;2023-06-22T10:22:27;4.40;;;3.38;;
38909;SDS011;24676;51.360;12.354;2023-06-22T10:25:11;3.83;;;3.42;;
38909;SDS011;24676;51.360;12.354;2023-06-22T10:27:56;4.53;;;3.28;;
38909;SDS011;24676;51.360;12.354;2023-06-22T10:30:41;3.58;;;3.28;;
38909;SDS011;24676;51.360;12.354;2023-06-22T10:33:26;5.00;;;4.00;;
38909;SDS011;24676;51.360;12.354;2023-06-22T10:36:10;4.22;;;3.83;;
38909;SDS011;24676;51.360;12.354;2023-06-22T10:38:55;3.05;;;2.70;;
38909;SDS011;24676;51.360;12.354;2023-06-22T10:41:39;3.83;;;3.30;;
38909;SDS011;24676;51.360;12.354;2023-06-22T10:44:23;3.33;;;3.03;;
38909;SDS011;24676;51.360;12.354;2023-06-22T10:47:07;5.57;;;3.63;;
38909;SDS011;24676;51.360;12.354;2023-06-22T10:49:51;3.97;;;3.63;;
38909;SDS011;24676;51.360;12.354;2023-06-22T10:52:35;7.30;;;4.38;;
38909;SDS011;24676;51.360;12.354;2023-06-22T10:55:20;3.70;;;3.33;;
38909;SDS011;24676;51.360;12.354;2023-06-22T10:58:05;5.65;;;4.47;;
38909;SDS011;24676;51.360;12.354;2023-06-22T11:00:49;2.70;;;2.30;;
38909;SDS011;24676;51.360;12.354;2023-06-22T11:03:33;4.45;;;2.80;;
38909;SDS011;24676;51.360;12.354;2023-06-22T11:06:17;4.00;;;3.60;;
38909;SDS011;24676;51.360;12.354;2023-06-22T11:09:01;4.05;;;3.55;;
38909;SDS011;24676;51.360;12.354;2023-06-22T11:11:47;3.20;;;2.88;;
38909;SDS011;24676;51.360;12.354;2023-06-22T11:14:33;3.15;;;2.70;;
38909;SDS011;24676;51.360;12.354;2023-06-22T11:17:17;3.85;;;3.05;;
38909;SDS011;24676;51.360;12.354;2023-06-22T11:20:01;4.50;;;3.17;;
38909;SDS011;24676;51.360;12.354;2023-06-22T11:22:49;3.50;;;2.78;;
38909;SDS011;24676;51.360;12.354;2023-06-22T11:25:33;4.13;;;3.78;;
38909;SDS011;24676;51.360;12.354;2023-06-22T11:28:21;4.68;;;3.10;;
38909;SDS011;24676;51.360;12.354;2023-06-22T11:31:05;5.30;;;3.67;;
38909;SDS011;24676;51.360;12.354;2023-06-22T11:33:51;3.72;;;3.42;;
38909;SDS011;24676;51.360;12.354;2023-06-22T11:36:35;4.55;;;3.10;;
38909;SDS011;24676;51.360;12.354;2023-06-22T11:39:19;3.42;;;2.92;;
38909;SDS011;24676;51.360;12.354;2023-06-22T11:42:03;4.00;;;3.33;;
38909;SDS011;24676;51.360;12.354;2023-06-22T11:44:48;3.10;;;2.78;;
38909;SDS011;24676;51.360;12.354;2023-06-22T11:47:33;3.30;;;3.00;;
38909;SDS011;24676;51.360;12.354;2023-06-22T11:50:17;4.15;;;3.10;;
38909;SDS011;24676;51.360;12.354;2023-06-22T11:53:02;5.28;;;4.20;;
38909;SDS011;24676;51.360;12.354;2023-06-22T11:55:46;4.40;;;3.40;;
38909;SDS011;24676;51.360;12.354;2023-06-22T11:58:32;4.72;;;3.03;;
38909;SDS011;24676;51.360;12.354;2023-06-22T12:01:16;4.18;;;3.55;;
38909;SDS011;24676;51.360;12.354;2023-06-22T12:04:00;3.85;;;3.45;;
38909;SDS011;24676;51.360;12.354;2023-06-22T12:06:45;4.63;;;4.18;;
38909;SDS011;24676;51.360;12.354;2023-06-22T12:09:29;4.53;;;3.58;;
38909;SDS011;24676;51.360;12.354;2023-06-22T12:12:14;5.97;;;3.05;;
38909;SDS011;24676;51.360;12.354;2023-06-22T12:14:58;4.70;;;3.63;;
38909;SDS011;24676;51.360;12.354;2023-06-22T12:17:47;4.18;;;3.53;;
38909;SDS011;24676;51.360;12.354;2023-06-22T12:20:31;4.82;;;4.20;;
38909;SDS011;24676;51.360;12.354;2023-06-22T12:23:16;7.38;;;3.78;;
38909;SDS011;24676;51.360;12.354;2023-06-22T12:26:00;3.90;;;3.10;;
38909;SDS011;24676;51.360;12.354;2023-06-22T12:28:45;3.53;;;3.22;;
38909;SDS011;24676;51.360;12.354;2023-06-22T12:31:29;4.40;;;3.80;;
38909;SDS011;24676;51.360;12.354;2023-06-22T12:37:04;5.28;;;3.22;;
38909;SDS011;24676;51.360;12.354;2023-06-22T12:39:49;3.90;;;3.60;;
38909;SDS011;24676;51.360;12.354;2023-06-22T12:42:33;3.47;;;3.17;;
38909;SDS011;24676;51.360;12.354;2023-06-22T12:45:18;3.97;;;3.55;;
38909;SDS011;24676;51.360;12.354;2023-06-22T12:48:04;3.67;;;2.97;;
38909;SDS011;24676;51.360;12.354;2023-06-22T12:50:48;3.78;;;3.35;;
38909;SDS011;24676;51.360;12.354;2023-06-22T12:53:32;4.03;;;3.53;;
38909;SDS011;24676;51.360;12.354;2023-06-22T12:56:17;3.88;;;3.45;;
38909;SDS011;24676;51.360;12.354;2023-06-22T12:59:01;6.13;;;3.08;;
38909;SDS011;24676;51.360;12.354;2023-06-22T13:01:45;5.07;;;3.55;;
38909;SDS011;24676;51.360;12.354;2023-06-22T13:04:29;4.35;;;3.58;;
38909;SDS011;24676;51.360;12.354;2023-06-22T13:07:14;4.32;;;3.67;;
38909;SDS011;24676;51.360;12.354;2023-06-22T13:09:58;5.65;;;3.42;;
38909;SDS011;24676;51.360;12.354;2023-06-22T13:12:41;6.43;;;3.70;;
38909;SDS011;24676;51.360;12.354;2023-06-22T13:15:27;6.18;;;4.22;;
38909;SDS011;24676;51.360;12.354;2023-06-22T13:18:14;4.65;;;3.92;;
38909;SDS011;24676;51.360;12.354;2023-06-22T13:20:58;5.78;;;3.60;;
38909;SDS011;24676;51.360;12.354;2023-06-22T13:23:43;6.28;;;3.95;;
38909;SDS011;24676;51.360;12.354;2023-06-22T13:26:28;5.55;;;3.95;;
38909;SDS011;24676;51.360;12.354;2023-06-22T13:29:12;4.10;;;3.72;;
38909;SDS011;24676;51.360;12.354;2023-06-22T13:31:56;5.13;;;3.22;;
38909;SDS011;24676;51.360;12.354;2023-06-22T13:34:41;4.30;;;3.90;;
38909;SDS011;24676;51.360;12.354;2023-06-22T13:37:26;4.50;;;3.50;;
38909;SDS011;24676;51.360;12.354;2023-06-22T13:40:11;6.53;;;3.58;;
38909;SDS011;24676;51.360;12.354;2023-06-22T13:42:55;4.18;;;3.42;;
38909;SDS011;24676;51.360;12.354;2023-06-22T13:45:40;3.58;;;3.17;;
38909;SDS011;24676;51.360;12.354;2023-06-22T13:48:24;3.65;;;3.30;;
38909;SDS011;24676;51.360;12.354;2023-06-22T13:51:09;4.88;;;3.53;;
38909;SDS011;24676;51.360;12.354;2023-06-22T13:53:53;4.30;;;3.90;;
38909;SDS011;24676;51.360;12.354;2023-06-22T13:56:38;5.95;;;4.43;;
38909;SDS011;24676;51.360;12.354;2023-06-22T13:59:22;4.88;;;4.38;;
38909;SDS011;24676;51.360;12.354;2023-06-22T14:02:06;6.07;;;3.95;;
38909;SDS011;24676;51.360;12.354;2023-06-22T14:04:51;10.85;;;4.00;;
38909;SDS011;24676;51.360;12.354;2023-06-22T14:07:35;6.57;;;3.22;;
38909;SDS011;24676;51.360;12.354;2023-06-22T14:10:20;5.50;;;4.82;;
38909;SDS011;24676;51.360;12.354;2023-06-22T14:13:04;6.90;;;4.25;;
38909;SDS011;24676;51.360;12.354;2023-06-22T14:15:49;6.43;;;3.88;;
38909;SDS011;24676;51.360;12.354;2023-06-22T14:18:35;4.25;;;3.75;;
38909;SDS011;24676;51.360;12.354;2023-06-22T14:21:20;4.53;;;4.10;;
38909;SDS011;24676;51.360;12.354;2023-06-22T14:24:04;10.02;;;4.40;;
38909;SDS011;24676;51.360;12.354;2023-06-22T14:26:49;4.47;;;3.78;;
38909;SDS011;24676;51.360;12.354;2023-06-22T14:29:33;5.50;;;4.07;;
38909;SDS011;24676;51.360;12.354;2023-06-22T14:32:18;7.15;;;4.03;;
38909;SDS011;24676;51.360;12.354;2023-06-22T14:35:02;6.43;;;3.88;;
38909;SDS011;24676;51.360;12.354;2023-06-22T14:37:47;5.25;;;4.38;;
38909;SDS011;24676;51.360;12.354;2023-06-22T14:40:32;4.00;;;3.55;;
38909;SDS011;24676;51.360;12.354;2023-06-22T14:43:17;4.38;;;3.97;;
38909;SDS011;24676;51.360;12.354;2023-06-22T14:46:01;4.90;;;4.25;;
38909;SDS011;24676;51.360;12.354;2023-06-22T14:48:46;3.67;;;3.10;;
38909;SDS011;24676;51.360;12.354;2023-06-22T14:51:30;5.47;;;4.18;;
38909;SDS011;24676;51.360;12.354;2023-06-22T14:54:14;4.50;;;4.07;;
38909;SDS011;24676;51.360;12.354;2023-06-22T14:56:59;7.07;;;5.57;;
38909;SDS011;24676;51.360;12.354;2023-06-22T14:59:43;4.95;;;4.32;;
38909;SDS011;24676;51.360;12.354;2023-06-22T15:02:27;4.18;;;3.78;;
38909;SDS011;24676;51.360;12.354;2023-06-22T15:05:11;5.70;;;4.15;;
38909;SDS011;24676;51.360;12.354;2023-06-22T15:07:55;5.03;;;3.80;;
38909;SDS011;24676;51.360;12.354;2023-06-22T15:10:39;5.10;;;4.30;;
38909;SDS011;24676;51.360;12.354;2023-06-22T15:13:23;5.45;;;4.55;;
38909;SDS011;24676;51.360;12.354;2023-06-22T15:16:08;6.13;;;3.53;;
38909;SDS011;24676;51.360;12.354;2023-06-22T15:18:52;7.10;;;4.28;;
38909;SDS011;24676;51.360;12.354;2023-06-22T15:21:37;6.43;;;4.90;;
38909;SDS011;24676;51.360;12.354;2023-06-22T15:24:21;4.05;;;3.53;;
38909;SDS011;24676;51.360;12.354;2023-06-22T15:27:06;4.00;;;3.65;;
38909;SDS011;24676;51.360;12.354;2023-06-22T15:29:50;4.55;;;3.55;;
38909;SDS011;24676;51.360;12.354;2023-06-22T15:32:36;5.45;;;4.38;;
38909;SDS011;24676;51.360;12.354;2023-06-22T15:35:21;4.18;;;3.40;;
38909;SDS011;24676;51.360;12.354;2023-06-22T15:38:05;4.97;;;3.47;;
38909;SDS011;24676;51.360;12.354;2023-06-22T15:40:50;5.03;;;3.80;;
38909;SDS011;24676;51.360;12.354;2023-06-22T15:43:34;4.55;;;3.35;;
38909;SDS011;24676;51.360;12.354;2023-06-22T15:46:19;5.97;;;4.53;;
38909;SDS011;24676;51.360;12.354;2023-06-22T15:49:04;6.13;;;4.07;;
38909;SDS011;24676;51.360;12.354;2023-06-22T15:51:49;4.72;;;4.03;;
38909;SDS011;24676;51.360;12.354;2023-06-22T15:54:33;6.88;;;4.63;;
38909;SDS011;24676;51.360;12.354;2023-06-22T15:57:17;5.97;;;4.30;;
38909;SDS011;24676;51.360;12.354;2023-06-22T16:00:02;5.15;;;4.22;;
38909;SDS011;24676;51.360;12.354;2023-06-22T16:02:48;6.68;;;4.03;;
38909;SDS011;24676;51.360;12.354;2023-06-22T16:05:32;5.57;;;4.57;;
38909;SDS011;24676;51.360;12.354;2023-06-22T16:08:17;6.50;;;4.32;;
38909;SDS011;24676;51.360;12.354;2023-06-22T16:11:01;4.20;;;3.80;;
38909;SDS011;24676;51.360;12.354;2023-06-22T16:13:45;3.90;;;3.60;;
38909;SDS011;24676;51.360;12.354;2023-06-22T16:16:30;4.97;;;4.28;;
38909;SDS011;24676;51.360;12.354;2023-06-22T16:19:15;5.95;;;4.25;;
38909;SDS011;24676;51.360;12.354;2023-06-22T16:21:59;9.38;;;4.35;;